sensor_id;sensor_type;location;lat;lon;timestamp;temperature;humidity
30304;DHT22;17112;48.636;10.152;2024-01-15T00:00:44;-0.40;68.00
30304;DHT22;17112;48.636;10.152;2024-01-15T00:03:10;-0.20;68.20
30304;DHT22;17112;48.636;10.152;2024-01-15T00:05:36;-0.40;68.20
30304;DHT22;17112;48.636;10.152;2024-01-15T00:08:02;-0.40;68.10
30304;DHT22;17112;48.636;10.152;2024-01-15T00:10:27;-0.30;67.90
30304;DHT22;17112;48.636;10.152;2024-01-15T00:12:54;-0.30;67.90
30304;DHT22;17112;48.636;10.152;2024-01-15T00:15:20;-0.30;68.00
30304;DHT22;17112;48.636;10.152;2024-01-15T00:17:46;-0.10;67.90
30304;DHT22;17112;48.636;10.152;2024-01-15T00:20:12;-0.20;67.80
30304;DHT22;17112;48.636;10.152;2024-01-15T00:22:38;-0.20;67.80
30304;DHT22;17112;48.636;10.152;2024-01-15T00:25:04;-0.20;67.70
30304;DHT22;17112;48.636;10.152;2024-01-15T00:27:31;-0.20;67.50
30304;DHT22;17112;48.636;10.152;2024-01-15T00:29:58;-0.10;67.70
30304;DHT22;17112;48.636;10.152;2024-01-15T00:32:24;-0.10;67.60
30304;DHT22;17112;48.636;10.152;2024-01-15T00:34:50;-0.10;67.60
30304;DHT22;17112;48.636;10.152;2024-01-15T00:37:16;0.00;67.70
30304;DHT22;17112;48.636;10.152;2024-01-15T00:39:41;0.10;67.60
30304;DHT22;17112;48.636;10.152;2024-01-15T00:42:07;0.00;67.50
30304;DHT22;17112;48.636;10.152;2024-01-15T00:44:33;0.00;67.50
30304;DHT22;17112;48.636;10.152;2024-01-15T00:47:00;0.00;67.50
30304;DHT22;17112;48.636;10.152;2024-01-15T00:49:27;0.20;67.80
30304;DHT22;17112;48.636;10.152;2024-01-15T00:51:54;0.10;67.60
30304;DHT22;17112;48.636;10.152;2024-01-15T00:54:20;0.20;67.70
30304;DHT22;17112;48.636;10.152;2024-01-15T00:56:46;0.20;67.50
30304;DHT22;17112;48.636;10.152;2024-01-15T00:59:12;0.20;67.40
30304;DHT22;17112;48.636;10.152;2024-01-15T01:01:41;0.20;67.30
30304;DHT22;17112;48.636;10.152;2024-01-15T01:04:09;0.20;67.30
30304;DHT22;17112;48.636;10.152;2024-01-15T01:06:35;0.30;67.20
30304;DHT22;17112;48.636;10.152;2024-01-15T01:09:01;0.60;67.40
30304;DHT22;17112;48.636;10.152;2024-01-15T01:11:28;0.20;67.00
30304;DHT22;17112;48.636;10.152;2024-01-15T01:13:54;0.50;67.20
30304;DHT22;17112;48.636;10.152;2024-01-15T01:16:21;0.30;67.10
30304;DHT22;17112;48.636;10.152;2024-01-15T01:18:48;0.30;67.00
30304;DHT22;17112;48.636;10.152;2024-01-15T01:21:14;0.40;67.10
30304;DHT22;17112;48.636;10.152;2024-01-15T01:23:40;0.20;66.90
30304;DHT22;17112;48.636;10.152;2024-01-15T01:26:06;0.30;67.00
30304;DHT22;17112;48.636;10.152;2024-01-15T01:28:31;0.20;66.90
30304;DHT22;17112;48.636;10.152;2024-01-15T01:30:58;0.20;66.80
30304;DHT22;17112;48.636;10.152;2024-01-15T01:33:24;0.50;66.90
30304;DHT22;17112;48.636;10.152;2024-01-15T01:35:50;0.20;66.70
30304;DHT22;17112;48.636;10.152;2024-01-15T01:38:16;0.20;66.60
30304;DHT22;17112;48.636;10.152;2024-01-15T01:40:42;0.20;66.50
30304;DHT22;17112;48.636;10.152;2024-01-15T01:43:09;0.30;66.60
30304;DHT22;17112;48.636;10.152;2024-01-15T01:45:35;0.20;67.20
30304;DHT22;17112;48.636;10.152;2024-01-15T01:48:01;0.10;67.10
30304;DHT22;17112;48.636;10.152;2024-01-15T01:50:29;0.10;66.40
30304;DHT22;17112;48.636;10.152;2024-01-15T01:52:55;0.20;66.30
30304;DHT22;17112;48.636;10.152;2024-01-15T01:55:24;0.00;66.10
30304;DHT22;17112;48.636;10.152;2024-01-15T01:57:51;0.10;66.20
30304;DHT22;17112;48.636;10.152;2024-01-15T02:00:18;-0.10;66.30
30304;DHT22;17112;48.636;10.152;2024-01-15T02:02:45;0.00;66.40
30304;DHT22;17112;48.636;10.152;2024-01-15T02:05:12;-0.20;66.30
30304;DHT22;17112;48.636;10.152;2024-01-15T02:07:39;-0.20;66.40
30304;DHT22;17112;48.636;10.152;2024-01-15T02:10:06;-0.30;66.40
30304;DHT22;17112;48.636;10.152;2024-01-15T02:12:34;-0.30;66.40
30304;DHT22;17112;48.636;10.152;2024-01-15T02:15:00;-0.40;66.50
30304;DHT22;17112;48.636;10.152;2024-01-15T02:17:26;-0.40;66.50
30304;DHT22;17112;48.636;10.152;2024-01-15T02:19:52;-0.40;66.60
30304;DHT22;17112;48.636;10.152;2024-01-15T02:22:18;-0.30;66.70
30304;DHT22;17112;48.636;10.152;2024-01-15T02:24:44;-0.50;66.60
30304;DHT22;17112;48.636;10.152;2024-01-15T02:27:10;-0.50;66.50
30304;DHT22;17112;48.636;10.152;2024-01-15T02:29:36;-0.60;66.60
30304;DHT22;17112;48.636;10.152;2024-01-15T02:32:05;-0.60;66.60
30304;DHT22;17112;48.636;10.152;2024-01-15T02:34:32;-0.60;66.90
30304;DHT22;17112;48.636;10.152;2024-01-15T02:36:58;-0.60;67.00
30304;DHT22;17112;48.636;10.152;2024-01-15T02:39:25;-0.60;67.20
30304;DHT22;17112;48.636;10.152;2024-01-15T02:41:50;-0.60;67.70
30304;DHT22;17112;48.636;10.152;2024-01-15T02:44:16;-0.40;68.00
30304;DHT22;17112;48.636;10.152;2024-01-15T02:46:42;-0.60;68.10
30304;DHT22;17112;48.636;10.152;2024-01-15T02:49:08;-0.50;68.20
30304;DHT22;17112;48.636;10.152;2024-01-15T02:51:34;-0.50;68.20
30304;DHT22;17112;48.636;10.152;2024-01-15T02:54:00;-0.20;68.50
30304;DHT22;17112;48.636;10.152;2024-01-15T02:56:25;-0.10;68.60
30304;DHT22;17112;48.636;10.152;2024-01-15T02:58:51;-0.20;68.50
30304;DHT22;17112;48.636;10.152;2024-01-15T03:01:21;-0.10;68.60
30304;DHT22;17112;48.636;10.152;2024-01-15T03:03:47;-0.20;68.40
30304;DHT22;17112;48.636;10.152;2024-01-15T03:06:13;-0.10;68.60
30304;DHT22;17112;48.636;10.152;2024-01-15T03:08:39;-0.10;68.70
30304;DHT22;17112;48.636;10.152;2024-01-15T03:11:05;0.00;68.70
30304;DHT22;17112;48.636;10.152;2024-01-15T03:13:30;0.00;68.70
30304;DHT22;17112;48.636;10.152;2024-01-15T03:15:56;0.10;68.60
30304;DHT22;17112;48.636;10.152;2024-01-15T03:18:22;0.20;68.50
30304;DHT22;17112;48.636;10.152;2024-01-15T03:20:48;0.20;68.40
30304;DHT22;17112;48.636;10.152;2024-01-15T03:23:14;0.30;68.40
30304;DHT22;17112;48.636;10.152;2024-01-15T03:25:40;0.30;68.30
30304;DHT22;17112;48.636;10.152;2024-01-15T03:28:06;0.40;68.40
30304;DHT22;17112;48.636;10.152;2024-01-15T03:30:32;0.40;68.20
30304;DHT22;17112;48.636;10.152;2024-01-15T03:32:58;0.50;68.20
30304;DHT22;17112;48.636;10.152;2024-01-15T03:35:23;0.50;68.00
30304;DHT22;17112;48.636;10.152;2024-01-15T03:37:54;0.60;68.00
30304;DHT22;17112;48.636;10.152;2024-01-15T03:40:20;0.60;67.90
30304;DHT22;17112;48.636;10.152;2024-01-15T03:42:46;0.90;68.10
30304;DHT22;17112;48.636;10.152;2024-01-15T03:45:13;0.70;67.90
30304;DHT22;17112;48.636;10.152;2024-01-15T03:47:39;0.70;67.80
30304;DHT22;17112;48.636;10.152;2024-01-15T03:50:05;0.70;67.80
30304;DHT22;17112;48.636;10.152;2024-01-15T03:52:31;0.70;67.90
30304;DHT22;17112;48.636;10.152;2024-01-15T03:54:57;0.80;67.90
30304;DHT22;17112;48.636;10.152;2024-01-15T03:57:23;0.80;67.80
30304;DHT22;17112;48.636;10.152;2024-01-15T03:59:48;0.80;67.60
30304;DHT22;17112;48.636;10.152;2024-01-15T04:02:14;0.90;67.70
30304;DHT22;17112;48.636;10.152;2024-01-15T04:04:43;0.90;67.60
30304;DHT22;17112;48.636;10.152;2024-01-15T04:07:09;0.90;67.60
30304;DHT22;17112;48.636;10.152;2024-01-15T04:09:35;0.90;67.50
30304;DHT22;17112;48.636;10.152;2024-01-15T04:12:00;0.90;67.50
30304;DHT22;17112;48.636;10.152;2024-01-15T04:14:26;1.00;67.60
30304;DHT22;17112;48.636;10.152;2024-01-15T04:16:52;1.00;67.60
30304;DHT22;17112;48.636;10.152;2024-01-15T04:19:18;1.00;67.50
30304;DHT22;17112;48.636;10.152;2024-01-15T04:21:44;1.00;67.50
30304;DHT22;17112;48.636;10.152;2024-01-15T04:24:09;1.00;67.50
30304;DHT22;17112;48.636;10.152;2024-01-15T04:26:35;1.10;67.60
30304;DHT22;17112;48.636;10.152;2024-01-15T04:29:01;1.10;67.50
30304;DHT22;17112;48.636;10.152;2024-01-15T04:31:26;1.10;67.50
30304;DHT22;17112;48.636;10.152;2024-01-15T04:33:52;1.10;67.50
30304;DHT22;17112;48.636;10.152;2024-01-15T04:36:18;1.10;67.50
30304;DHT22;17112;48.636;10.152;2024-01-15T04:38:44;1.30;67.60
30304;DHT22;17112;48.636;10.152;2024-01-15T04:41:12;1.20;67.60
30304;DHT22;17112;48.636;10.152;2024-01-15T04:43:38;1.20;67.50
30304;DHT22;17112;48.636;10.152;2024-01-15T04:46:05;1.20;67.50
30304;DHT22;17112;48.636;10.152;2024-01-15T04:48:33;1.20;67.40
30304;DHT22;17112;48.636;10.152;2024-01-15T04:50:59;1.20;67.50
30304;DHT22;17112;48.636;10.152;2024-01-15T04:53:25;1.20;67.40
30304;DHT22;17112;48.636;10.152;2024-01-15T04:55:52;1.20;67.50
30304;DHT22;17112;48.636;10.152;2024-01-15T04:58:18;1.20;67.50
30304;DHT22;17112;48.636;10.152;2024-01-15T05:00:44;1.30;67.60
30304;DHT22;17112;48.636;10.152;2024-01-15T05:03:10;1.30;67.60
30304;DHT22;17112;48.636;10.152;2024-01-15T05:05:36;1.30;67.50
30304;DHT22;17112;48.636;10.152;2024-01-15T05:08:02;1.30;67.50
30304;DHT22;17112;48.636;10.152;2024-01-15T05:10:28;1.30;67.50
30304;DHT22;17112;48.636;10.152;2024-01-15T05:12:53;1.50;67.60
30304;DHT22;17112;48.636;10.152;2024-01-15T05:15:19;1.30;67.50
30304;DHT22;17112;48.636;10.152;2024-01-15T05:17:45;1.30;67.50
30304;DHT22;17112;48.636;10.152;2024-01-15T05:20:11;1.40;67.60
30304;DHT22;17112;48.636;10.152;2024-01-15T05:22:36;1.40;67.60
30304;DHT22;17112;48.636;10.152;2024-01-15T05:25:02;1.40;67.50
30304;DHT22;17112;48.636;10.152;2024-01-15T05:27:28;1.40;67.50
30304;DHT22;17112;48.636;10.152;2024-01-15T05:29:54;1.40;67.60
30304;DHT22;17112;48.636;10.152;2024-01-15T05:32:20;1.40;67.60
30304;DHT22;17112;48.636;10.152;2024-01-15T05:34:45;1.40;67.60
30304;DHT22;17112;48.636;10.152;2024-01-15T05:37:11;1.40;67.60
30304;DHT22;17112;48.636;10.152;2024-01-15T05:39:37;1.60;67.70
30304;DHT22;17112;48.636;10.152;2024-01-15T05:42:04;1.40;67.50
30304;DHT22;17112;48.636;10.152;2024-01-15T05:44:29;1.40;67.50
30304;DHT22;17112;48.636;10.152;2024-01-15T05:46:55;1.40;67.40
30304;DHT22;17112;48.636;10.152;2024-01-15T05:49:21;1.40;67.50
30304;DHT22;17112;48.636;10.152;2024-01-15T05:51:46;1.50;67.50
30304;DHT22;17112;48.636;10.152;2024-01-15T05:54:12;1.60;67.50
30304;DHT22;17112;48.636;10.152;2024-01-15T05:56:38;1.80;67.60
30304;DHT22;17112;48.636;10.152;2024-01-15T05:59:03;1.50;67.30
30304;DHT22;17112;48.636;10.152;2024-01-15T06:01:30;1.50;67.20
30304;DHT22;17112;48.636;10.152;2024-01-15T06:03:56;1.50;67.20
30304;DHT22;17112;48.636;10.152;2024-01-15T06:06:22;1.50;67.00
30304;DHT22;17112;48.636;10.152;2024-01-15T06:08:48;1.60;67.00
30304;DHT22;17112;48.636;10.152;2024-01-15T06:11:14;1.60;66.90
30304;DHT22;17112;48.636;10.152;2024-01-15T06:13:40;1.60;66.80
30304;DHT22;17112;48.636;10.152;2024-01-15T06:16:16;1.70;66.90
30304;DHT22;17112;48.636;10.152;2024-01-15T06:18:42;1.70;66.70
30304;DHT22;17112;48.636;10.152;2024-01-15T06:21:08;1.70;66.60
30304;DHT22;17112;48.636;10.152;2024-01-15T06:23:36;1.70;66.70
30304;DHT22;17112;48.636;10.152;2024-01-15T06:26:02;1.80;66.60
30304;DHT22;17112;48.636;10.152;2024-01-15T06:28:29;1.80;66.60
30304;DHT22;17112;48.636;10.152;2024-01-15T06:30:54;1.90;66.50
30304;DHT22;17112;48.636;10.152;2024-01-15T06:33:20;1.80;66.40
30304;DHT22;17112;48.636;10.152;2024-01-15T06:35:46;1.90;66.40
30304;DHT22;17112;48.636;10.152;2024-01-15T06:38:13;1.90;66.40
30304;DHT22;17112;48.636;10.152;2024-01-15T06:40:38;1.90;66.30
30304;DHT22;17112;48.636;10.152;2024-01-15T06:43:07;1.90;66.30
30304;DHT22;17112;48.636;10.152;2024-01-15T06:45:32;1.90;66.20
30304;DHT22;17112;48.636;10.152;2024-01-15T06:47:59;2.00;66.30
30304;DHT22;17112;48.636;10.152;2024-01-15T06:50:25;2.00;66.20
30304;DHT22;17112;48.636;10.152;2024-01-15T06:52:50;2.00;66.20
30304;DHT22;17112;48.636;10.152;2024-01-15T06:55:16;2.00;66.10
30304;DHT22;17112;48.636;10.152;2024-01-15T06:57:41;2.00;66.00
30304;DHT22;17112;48.636;10.152;2024-01-15T07:00:08;2.00;66.00
30304;DHT22;17112;48.636;10.152;2024-01-15T07:02:34;2.00;65.90
30304;DHT22;17112;48.636;10.152;2024-01-15T07:05:01;2.10;65.90
30304;DHT22;17112;48.636;10.152;2024-01-15T07:07:27;2.10;65.90
30304;DHT22;17112;48.636;10.152;2024-01-15T07:09:55;2.20;66.00
30304;DHT22;17112;48.636;10.152;2024-01-15T07:12:21;2.10;65.90
30304;DHT22;17112;48.636;10.152;2024-01-15T07:14:47;2.10;65.90
30304;DHT22;17112;48.636;10.152;2024-01-15T07:17:13;2.10;66.00
30304;DHT22;17112;48.636;10.152;2024-01-15T07:19:38;2.10;65.90
30304;DHT22;17112;48.636;10.152;2024-01-15T07:22:05;2.10;65.90
30304;DHT22;17112;48.636;10.152;2024-01-15T07:24:30;2.10;65.90
30304;DHT22;17112;48.636;10.152;2024-01-15T07:26:57;2.10;65.80
30304;DHT22;17112;48.636;10.152;2024-01-15T07:29:22;2.20;65.80
30304;DHT22;17112;48.636;10.152;2024-01-15T07:31:52;2.20;65.80
30304;DHT22;17112;48.636;10.152;2024-01-15T07:34:18;2.40;65.90
30304;DHT22;17112;48.636;10.152;2024-01-15T07:36:44;2.20;65.60
30304;DHT22;17112;48.636;10.152;2024-01-15T07:39:10;2.20;65.60
30304;DHT22;17112;48.636;10.152;2024-01-15T07:41:36;2.20;65.60
30304;DHT22;17112;48.636;10.152;2024-01-15T07:44:03;2.20;65.60
30304;DHT22;17112;48.636;10.152;2024-01-15T07:46:29;2.30;65.60
30304;DHT22;17112;48.636;10.152;2024-01-15T07:48:55;2.20;65.40
30304;DHT22;17112;48.636;10.152;2024-01-15T07:51:24;2.30;65.40
30304;DHT22;17112;48.636;10.152;2024-01-15T07:53:50;2.30;65.40
30304;DHT22;17112;48.636;10.152;2024-01-15T07:56:16;2.30;65.40
30304;DHT22;17112;48.636;10.152;2024-01-15T07:58:42;2.30;65.40
30304;DHT22;17112;48.636;10.152;2024-01-15T08:01:07;2.30;65.40
30304;DHT22;17112;48.636;10.152;2024-01-15T08:03:33;2.30;65.40
30304;DHT22;17112;48.636;10.152;2024-01-15T08:05:59;2.30;65.40
30304;DHT22;17112;48.636;10.152;2024-01-15T08:08:25;2.30;65.40
30304;DHT22;17112;48.636;10.152;2024-01-15T08:10:54;2.30;65.30
30304;DHT22;17112;48.636;10.152;2024-01-15T08:13:21;2.30;65.40
30304;DHT22;17112;48.636;10.152;2024-01-15T08:15:47;2.30;65.30
30304;DHT22;17112;48.636;10.152;2024-01-15T08:18:13;2.30;65.30
30304;DHT22;17112;48.636;10.152;2024-01-15T08:20:39;2.50;65.50
30304;DHT22;17112;48.636;10.152;2024-01-15T08:23:05;2.40;65.40
30304;DHT22;17112;48.636;10.152;2024-01-15T08:25:30;2.40;65.40
30304;DHT22;17112;48.636;10.152;2024-01-15T08:27:57;2.50;65.40
30304;DHT22;17112;48.636;10.152;2024-01-15T08:30:23;2.50;65.40
30304;DHT22;17112;48.636;10.152;2024-01-15T08:32:56;2.60;65.40
30304;DHT22;17112;48.636;10.152;2024-01-15T08:35:22;2.60;65.40
30304;DHT22;17112;48.636;10.152;2024-01-15T08:37:51;2.70;65.30
30304;DHT22;17112;48.636;10.152;2024-01-15T08:40:17;2.80;65.20
30304;DHT22;17112;48.636;10.152;2024-01-15T08:42:43;2.80;65.20
30304;DHT22;17112;48.636;10.152;2024-01-15T08:45:10;2.90;65.10
30304;DHT22;17112;48.636;10.152;2024-01-15T08:47:35;2.90;65.10
30304;DHT22;17112;48.636;10.152;2024-01-15T08:50:03;3.00;64.90
30304;DHT22;17112;48.636;10.152;2024-01-15T08:52:29;3.10;65.00
30304;DHT22;17112;48.636;10.152;2024-01-15T08:54:58;3.10;65.00
30304;DHT22;17112;48.636;10.152;2024-01-15T08:57:24;3.20;64.90
30304;DHT22;17112;48.636;10.152;2024-01-15T08:59:51;3.20;64.80
30304;DHT22;17112;48.636;10.152;2024-01-15T09:02:16;3.30;64.50
30304;DHT22;17112;48.636;10.152;2024-01-15T09:04:42;3.30;64.20
30304;DHT22;17112;48.636;10.152;2024-01-15T09:07:08;3.40;64.30
30304;DHT22;17112;48.636;10.152;2024-01-15T09:09:33;3.50;64.20
30304;DHT22;17112;48.636;10.152;2024-01-15T09:12:00;3.50;64.00
30304;DHT22;17112;48.636;10.152;2024-01-15T09:14:27;3.50;64.00
30304;DHT22;17112;48.636;10.152;2024-01-15T09:16:54;3.60;63.70
30304;DHT22;17112;48.636;10.152;2024-01-15T09:19:22;3.60;63.60
30304;DHT22;17112;48.636;10.152;2024-01-15T09:21:48;3.70;63.50
30304;DHT22;17112;48.636;10.152;2024-01-15T09:24:13;3.70;63.30
30304;DHT22;17112;48.636;10.152;2024-01-15T09:26:39;3.70;63.20
30304;DHT22;17112;48.636;10.152;2024-01-15T09:29:05;3.80;62.90
30304;DHT22;17112;48.636;10.152;2024-01-15T09:31:31;3.80;63.00
30304;DHT22;17112;48.636;10.152;2024-01-15T09:33:57;3.80;62.70
30304;DHT22;17112;48.636;10.152;2024-01-15T09:36:25;3.80;62.70
30304;DHT22;17112;48.636;10.152;2024-01-15T09:38:51;3.80;62.30
30304;DHT22;17112;48.636;10.152;2024-01-15T09:41:17;3.80;62.30
30304;DHT22;17112;48.636;10.152;2024-01-15T09:43:43;3.90;62.40
30304;DHT22;17112;48.636;10.152;2024-01-15T09:46:08;3.90;62.60
30304;DHT22;17112;48.636;10.152;2024-01-15T09:48:35;3.90;62.20
30304;DHT22;17112;48.636;10.152;2024-01-15T09:51:01;3.90;62.50
30304;DHT22;17112;48.636;10.152;2024-01-15T09:53:27;3.90;62.20
30304;DHT22;17112;48.636;10.152;2024-01-15T09:55:53;3.90;62.20
30304;DHT22;17112;48.636;10.152;2024-01-15T09:58:19;4.00;62.10
30304;DHT22;17112;48.636;10.152;2024-01-15T10:00:47;4.00;62.00
30304;DHT22;17112;48.636;10.152;2024-01-15T10:03:15;4.00;61.80
30304;DHT22;17112;48.636;10.152;2024-01-15T10:05:41;4.00;61.40
30304;DHT22;17112;48.636;10.152;2024-01-15T10:08:07;4.00;61.70
30304;DHT22;17112;48.636;10.152;2024-01-15T10:10:36;4.00;61.70
30304;DHT22;17112;48.636;10.152;2024-01-15T10:13:01;4.00;61.70
30304;DHT22;17112;48.636;10.152;2024-01-15T10:15:29;4.10;61.80
30304;DHT22;17112;48.636;10.152;2024-01-15T10:17:55;4.00;61.70
30304;DHT22;17112;48.636;10.152;2024-01-15T10:20:21;4.10;61.50
30304;DHT22;17112;48.636;10.152;2024-01-15T10:22:50;4.10;61.40
30304;DHT22;17112;48.636;10.152;2024-01-15T10:25:16;4.10;61.40
30304;DHT22;17112;48.636;10.152;2024-01-15T10:28:02;4.10;61.20
30304;DHT22;17112;48.636;10.152;2024-01-15T10:30:28;4.20;60.90
30304;DHT22;17112;48.636;10.152;2024-01-15T10:32:58;4.20;61.00
30304;DHT22;17112;48.636;10.152;2024-01-15T10:35:27;4.20;60.70
30304;DHT22;17112;48.636;10.152;2024-01-15T10:37:53;4.20;60.70
30304;DHT22;17112;48.636;10.152;2024-01-15T10:40:19;4.20;60.70
30304;DHT22;17112;48.636;10.152;2024-01-15T10:42:45;4.20;60.70
30304;DHT22;17112;48.636;10.152;2024-01-15T10:45:12;4.20;60.50
30304;DHT22;17112;48.636;10.152;2024-01-15T10:47:42;4.30;60.40
30304;DHT22;17112;48.636;10.152;2024-01-15T10:50:09;4.30;60.70
30304;DHT22;17112;48.636;10.152;2024-01-15T10:52:39;4.30;60.40
30304;DHT22;17112;48.636;10.152;2024-01-15T10:55:09;4.30;60.20
30304;DHT22;17112;48.636;10.152;2024-01-15T10:57:36;4.30;60.10
30304;DHT22;17112;48.636;10.152;2024-01-15T11:00:06;4.30;60.40
30304;DHT22;17112;48.636;10.152;2024-01-15T11:02:36;4.40;60.30
30304;DHT22;17112;48.636;10.152;2024-01-15T11:05:03;4.40;60.10
30304;DHT22;17112;48.636;10.152;2024-01-15T11:07:30;4.40;60.10
30304;DHT22;17112;48.636;10.152;2024-01-15T11:09:56;4.40;59.90
30304;DHT22;17112;48.636;10.152;2024-01-15T11:12:25;4.40;59.80
30304;DHT22;17112;48.636;10.152;2024-01-15T11:14:51;4.40;59.50
30304;DHT22;17112;48.636;10.152;2024-01-15T11:17:17;4.40;59.30
30304;DHT22;17112;48.636;10.152;2024-01-15T11:19:45;4.40;59.30
30304;DHT22;17112;48.636;10.152;2024-01-15T11:25:01;4.40;59.20
30304;DHT22;17112;48.636;10.152;2024-01-15T11:27:44;4.40;59.40
30304;DHT22;17112;48.636;10.152;2024-01-15T11:30:13;4.40;58.90
30304;DHT22;17112;48.636;10.152;2024-01-15T11:32:39;4.40;59.40
30304;DHT22;17112;48.636;10.152;2024-01-15T11:35:12;4.40;59.30
30304;DHT22;17112;48.636;10.152;2024-01-15T11:42:58;4.40;59.00
30304;DHT22;17112;48.636;10.152;2024-01-15T11:45:25;4.40;59.40
30304;DHT22;17112;48.636;10.152;2024-01-15T11:50:33;4.40;59.10
30304;DHT22;17112;48.636;10.152;2024-01-15T11:53:01;4.40;59.00
30304;DHT22;17112;48.636;10.152;2024-01-15T11:55:34;4.40;59.20
30304;DHT22;17112;48.636;10.152;2024-01-15T11:58:07;4.40;59.10
30304;DHT22;17112;48.636;10.152;2024-01-15T12:00:33;4.30;59.20
30304;DHT22;17112;48.636;10.152;2024-01-15T12:02:59;4.30;59.30
30304;DHT22;17112;48.636;10.152;2024-01-15T12:05:27;4.30;59.50
30304;DHT22;17112;48.636;10.152;2024-01-15T12:07:54;4.20;59.50
30304;DHT22;17112;48.636;10.152;2024-01-15T12:10:21;4.20;59.90
30304;DHT22;17112;48.636;10.152;2024-01-15T12:13:09;4.20;60.10
30304;DHT22;17112;48.636;10.152;2024-01-15T12:15:36;4.10;60.50
30304;DHT22;17112;48.636;10.152;2024-01-15T12:18:03;4.10;60.70
30304;DHT22;17112;48.636;10.152;2024-01-15T12:20:29;4.00;61.30
30304;DHT22;17112;48.636;10.152;2024-01-15T12:22:56;3.90;62.10
30304;DHT22;17112;48.636;10.152;2024-01-15T12:25:23;3.80;61.50
30304;DHT22;17112;48.636;10.152;2024-01-15T12:27:49;3.80;62.70
30304;DHT22;17112;48.636;10.152;2024-01-15T12:30:15;3.70;62.70
30304;DHT22;17112;48.636;10.152;2024-01-15T12:32:42;3.60;63.90
30304;DHT22;17112;48.636;10.152;2024-01-15T12:35:12;3.50;63.50
30304;DHT22;17112;48.636;10.152;2024-01-15T12:37:40;3.50;63.90
30304;DHT22;17112;48.636;10.152;2024-01-15T12:40:09;3.50;63.80
30304;DHT22;17112;48.636;10.152;2024-01-15T12:42:45;3.50;64.20
30304;DHT22;17112;48.636;10.152;2024-01-15T12:45:18;3.40;64.90
30304;DHT22;17112;48.636;10.152;2024-01-15T12:47:46;3.40;64.90
30304;DHT22;17112;48.636;10.152;2024-01-15T12:50:12;3.40;64.60
30304;DHT22;17112;48.636;10.152;2024-01-15T12:52:42;3.40;64.70
30304;DHT22;17112;48.636;10.152;2024-01-15T12:55:09;3.40;64.90
30304;DHT22;17112;48.636;10.152;2024-01-15T12:57:35;3.40;65.10
30304;DHT22;17112;48.636;10.152;2024-01-15T13:00:02;3.40;65.30
30304;DHT22;17112;48.636;10.152;2024-01-15T13:02:32;3.40;65.50
30304;DHT22;17112;48.636;10.152;2024-01-15T13:04:59;3.50;65.50
30304;DHT22;17112;48.636;10.152;2024-01-15T13:07:25;3.50;66.00
30304;DHT22;17112;48.636;10.152;2024-01-15T13:09:51;3.50;65.40
30304;DHT22;17112;48.636;10.152;2024-01-15T13:12:19;3.50;65.20
30304;DHT22;17112;48.636;10.152;2024-01-15T13:14:45;3.60;65.10
30304;DHT22;17112;48.636;10.152;2024-01-15T13:17:12;3.60;65.10
30304;DHT22;17112;48.636;10.152;2024-01-15T13:19:40;3.60;64.90
30304;DHT22;17112;48.636;10.152;2024-01-15T13:22:05;3.60;64.70
30304;DHT22;17112;48.636;10.152;2024-01-15T13:24:35;3.60;64.60
30304;DHT22;17112;48.636;10.152;2024-01-15T13:27:02;3.60;64.60
30304;DHT22;17112;48.636;10.152;2024-01-15T13:29:28;3.60;64.50
30304;DHT22;17112;48.636;10.152;2024-01-15T13:31:55;3.60;64.50
30304;DHT22;17112;48.636;10.152;2024-01-15T13:34:21;3.60;64.50
30304;DHT22;17112;48.636;10.152;2024-01-15T13:36:47;3.60;64.60
30304;DHT22;17112;48.636;10.152;2024-01-15T13:39:13;3.50;64.80
30304;DHT22;17112;48.636;10.152;2024-01-15T13:41:39;3.50;64.90
30304;DHT22;17112;48.636;10.152;2024-01-15T13:44:05;3.50;65.40
30304;DHT22;17112;48.636;10.152;2024-01-15T13:46:31;3.50;65.50
30304;DHT22;17112;48.636;10.152;2024-01-15T13:48:57;3.40;65.70
30304;DHT22;17112;48.636;10.152;2024-01-15T13:51:23;3.40;65.80
30304;DHT22;17112;48.636;10.152;2024-01-15T13:53:50;3.40;66.00
30304;DHT22;17112;48.636;10.152;2024-01-15T13:56:17;3.60;67.10
30304;DHT22;17112;48.636;10.152;2024-01-15T13:58:43;3.40;66.80
30304;DHT22;17112;48.636;10.152;2024-01-15T14:01:09;3.40;66.80
30304;DHT22;17112;48.636;10.152;2024-01-15T14:03:36;3.40;66.60
30304;DHT22;17112;48.636;10.152;2024-01-15T14:06:02;3.40;66.60
30304;DHT22;17112;48.636;10.152;2024-01-15T14:08:29;3.40;66.70
30304;DHT22;17112;48.636;10.152;2024-01-15T14:10:55;3.40;66.90
30304;DHT22;17112;48.636;10.152;2024-01-15T14:13:23;3.40;66.90
30304;DHT22;17112;48.636;10.152;2024-01-15T14:15:49;3.40;66.90
30304;DHT22;17112;48.636;10.152;2024-01-15T14:18:16;3.40;66.70
30304;DHT22;17112;48.636;10.152;2024-01-15T14:20:42;3.40;66.60
30304;DHT22;17112;48.636;10.152;2024-01-15T14:23:08;3.40;66.70
30304;DHT22;17112;48.636;10.152;2024-01-15T14:25:34;3.50;66.80
30304;DHT22;17112;48.636;10.152;2024-01-15T14:28:00;3.40;66.70
30304;DHT22;17112;48.636;10.152;2024-01-15T14:30:26;3.50;66.60
30304;DHT22;17112;48.636;10.152;2024-01-15T14:32:51;3.40;66.40
30304;DHT22;17112;48.636;10.152;2024-01-15T14:35:17;3.50;66.60
30304;DHT22;17112;48.636;10.152;2024-01-15T14:37:43;3.50;66.50
30304;DHT22;17112;48.636;10.152;2024-01-15T14:40:09;3.40;66.70
30304;DHT22;17112;48.636;10.152;2024-01-15T14:42:36;3.40;66.60
30304;DHT22;17112;48.636;10.152;2024-01-15T14:45:13;3.40;66.90
30304;DHT22;17112;48.636;10.152;2024-01-15T14:47:39;3.40;67.20
30304;DHT22;17112;48.636;10.152;2024-01-15T14:50:09;3.40;67.30
30304;DHT22;17112;48.636;10.152;2024-01-15T14:52:38;3.40;67.70
30304;DHT22;17112;48.636;10.152;2024-01-15T14:55:05;3.60;67.90
30304;DHT22;17112;48.636;10.152;2024-01-15T14:57:30;3.40;68.20
30304;DHT22;17112;48.636;10.152;2024-01-15T14:59:56;3.50;67.80
30304;DHT22;17112;48.636;10.152;2024-01-15T15:02:23;3.50;67.40
30304;DHT22;17112;48.636;10.152;2024-01-15T15:04:49;3.50;67.40
30304;DHT22;17112;48.636;10.152;2024-01-15T15:07:14;3.50;67.30
30304;DHT22;17112;48.636;10.152;2024-01-15T15:09:40;3.40;67.30
30304;DHT22;17112;48.636;10.152;2024-01-15T15:12:06;3.40;67.20
30304;DHT22;17112;48.636;10.152;2024-01-15T15:14:32;3.40;67.50
30304;DHT22;17112;48.636;10.152;2024-01-15T15:17:06;3.30;67.30
30304;DHT22;17112;48.636;10.152;2024-01-15T15:19:32;3.30;67.50
30304;DHT22;17112;48.636;10.152;2024-01-15T15:21:59;3.30;68.00
30304;DHT22;17112;48.636;10.152;2024-01-15T15:24:25;3.30;68.30
30304;DHT22;17112;48.636;10.152;2024-01-15T15:26:51;3.20;67.70
30304;DHT22;17112;48.636;10.152;2024-01-15T15:29:17;3.20;67.70
30304;DHT22;17112;48.636;10.152;2024-01-15T15:31:43;3.20;67.50
30304;DHT22;17112;48.636;10.152;2024-01-15T15:34:08;3.20;67.40
30304;DHT22;17112;48.636;10.152;2024-01-15T15:36:35;3.20;67.50